Dutchess County Airport
KPOU : now visible

Airfield :











YOU CAN JOIN US ON...

 
LOGIN :

Register | Disclaimer

   EN    FR    IT 

 









Legend :    VFR   Marginal VFR   IFR   Intensive IFR   Very Intensive IFR
Visi :
Ceiling :
>= 8 km
>= 3000ft
5 to 8 km
1000 to 3000 ft
1500m to 5 km
500 to 1000 ft
800 to 1500m
200 to 500 ft
< 800m
< 200 ft
Symbols :   Thunderstorms  Fog  Heavy snow  Heavy precipitations  Wind > 20 kt






- Airport Elevation : 165 ft
- IATA code : POU


KPOU - Dutchess County

CURRENT METAR :
  • 260053Z AUTO 15003KT 10SM CLR 20/15 A3014 RMK AO2 SLP204 T02000150

EXPIRED METARs :
  • 252353Z AUTO 15007KT 10SM CLR 22/15 A3014 RMK AO2 SLP200 T02170150 10244 20206 55000
  • 252253Z AUTO 14008KT 10SM CLR 23/16 A3013 RMK AO2 SLP198 T02330156

TAF KPOU
Valid from the 26 at 00:00 until the 27 at 00:00 UTC


252331Z 2600/2624 15005KT P6SM SKC
FM260300 00000KT 6SM BR BKN020 OVC030
FM260900 00000KT 5SM BR BKN010 OVC020
FM261500 18005KT P6SM FEW020 SCT035
KZBW FIR / North America



MET'MAP, your aeronautical weather chart ! - Copyright ORBIFLY December 2007 - Disclaimer

ORBIFLY MET'MAP TEAM :

Programming & Development : Alexandra Zaïnal
Concept & original design : Baudouin d'Aumeries
Assistance for programming : Marc-Olivier Méhu
Technical & hardware support : Manuel Goepfert

Contact : metmap@orbifly.com




SOURCES & CREDITS :

   NOAA       Earth
Advisory